createdAt,value
2018-03-01T00:01:44.722Z,14.90
2018-03-01T00:04:13.125Z,14.87
2018-03-01T00:06:41.614Z,14.10
2018-03-01T00:09:10.085Z,15.37
2018-03-01T00:11:38.507Z,15.10
2018-03-01T00:14:06.943Z,14.57
2018-03-01T00:16:35.401Z,13.13
2018-03-01T00:19:03.769Z,13.10
2018-03-01T00:21:32.149Z,14.40
2018-03-01T00:24:00.543Z,13.57
2018-03-01T00:26:28.961Z,14.03
2018-03-01T00:28:57.351Z,12.83
2018-03-01T00:31:26.515Z,13.50
2018-03-01T00:33:54.891Z,13.63
2018-03-01T00:36:23.293Z,12.57
2018-03-01T00:38:51.672Z,12.90
2018-03-01T00:41:20.059Z,13.63
2018-03-01T00:43:48.498Z,12.70
2018-03-01T00:46:16.897Z,14.20
2018-03-01T00:48:45.345Z,14.53
2018-03-01T00:51:13.731Z,13.30
2018-03-01T00:53:42.100Z,12.50
2018-03-01T00:56:10.519Z,13.00
2018-03-01T00:58:38.921Z,14.90
2018-03-01T01:01:08.149Z,14.40
2018-03-01T01:03:37.342Z,14.03
2018-03-01T01:06:05.735Z,12.93
2018-03-01T01:08:34.123Z,14.80
2018-03-01T01:11:02.529Z,13.93
2018-03-01T01:13:30.964Z,14.40
2018-03-01T01:15:59.371Z,12.50
2018-03-01T01:18:27.753Z,14.13
2018-03-01T01:20:56.130Z,13.70
2018-03-01T01:23:24.544Z,13.17
2018-03-01T01:25:53.721Z,14.47
2018-03-01T01:28:22.130Z,15.10
2018-03-01T01:30:50.512Z,12.33
2018-03-01T01:33:19.690Z,14.37
2018-03-01T01:35:48.071Z,13.50
2018-03-01T01:38:16.493Z,13.93
2018-03-01T01:40:44.892Z,12.13
2018-03-01T01:43:13.271Z,14.00
2018-03-01T01:45:41.679Z,13.70
2018-03-01T01:48:10.061Z,12.33
2018-03-01T01:50:56.316Z,14.50
2018-03-01T01:53:24.796Z,13.07
2018-03-01T01:55:53.369Z,13.50
2018-03-01T01:58:21.798Z,13.37
2018-03-01T02:00:50.186Z,13.10
2018-03-01T02:03:18.597Z,13.73
2018-03-01T02:05:47.050Z,12.03
2018-03-01T02:10:50.709Z,12.50
2018-03-01T02:13:19.090Z,13.70
2018-03-01T02:15:47.500Z,12.33
2018-03-01T02:18:15.913Z,12.20
2018-03-01T02:20:45.052Z,12.27
2018-03-01T02:23:13.491Z,11.80
2018-03-01T02:25:42.830Z,12.03
2018-03-01T02:28:11.310Z,11.63
2018-03-01T02:30:39.783Z,12.00
2018-03-01T02:33:08.190Z,12.70
2018-03-01T02:35:36.637Z,10.50
2018-03-01T02:38:05.002Z,12.13
2018-03-01T02:40:33.431Z,12.97
2018-03-01T02:43:01.820Z,13.10
2018-03-01T02:45:30.203Z,13.97
2018-03-01T02:47:58.646Z,12.33
2018-03-01T02:50:27.058Z,12.73
2018-03-01T02:52:55.433Z,12.93
2018-03-01T02:55:23.814Z,13.00
2018-03-01T02:57:52.229Z,13.10
2018-03-01T03:00:20.646Z,12.50
2018-03-01T03:02:49.029Z,12.30
2018-03-01T03:05:17.413Z,12.67
2018-03-01T03:07:45.805Z,12.57
2018-03-01T03:10:14.193Z,12.03
2018-03-01T03:12:42.593Z,11.67
2018-03-01T03:15:11.761Z,11.60
2018-03-01T03:17:40.165Z,11.57
2018-03-01T03:20:09.337Z,12.40
2018-03-01T03:22:37.718Z,13.17
2018-03-01T03:25:06.123Z,11.87
2018-03-01T03:27:35.272Z,12.20
2018-03-01T03:30:03.734Z,12.60
2018-03-01T03:32:32.179Z,11.93
2018-03-01T03:35:01.336Z,13.07
2018-03-01T03:37:29.733Z,11.70
2018-03-01T03:39:58.109Z,11.00
2018-03-01T03:42:26.637Z,12.67
2018-03-01T03:44:55.030Z,11.40
2018-03-01T03:47:23.438Z,12.77
2018-03-01T03:49:51.852Z,11.43
2018-03-01T03:52:21.006Z,11.47
2018-03-01T03:54:49.417Z,13.57
2018-03-01T03:57:17.785Z,11.57
2018-03-01T03:59:46.161Z,12.13
2018-03-01T04:02:15.383Z,12.53
2018-03-01T04:04:43.792Z,12.03
2018-03-01T04:07:12.290Z,12.60
2018-03-01T04:09:40.770Z,12.10
2018-03-01T04:12:09.187Z,11.23
2018-03-01T04:14:37.556Z,12.43
2018-03-01T04:17:05.932Z,11.83
2018-03-01T04:19:34.359Z,11.10
2018-03-01T04:22:02.742Z,12.10
2018-03-01T04:24:31.133Z,12.43
2018-03-01T04:26:59.541Z,12.00
2018-03-01T04:29:27.947Z,11.17
2018-03-01T04:31:57.186Z,12.80
2018-03-01T04:34:25.625Z,12.03
2018-03-01T04:36:54.789Z,11.80
2018-03-01T04:39:23.221Z,12.97
2018-03-01T04:41:51.650Z,13.27
2018-03-01T04:44:20.051Z,12.27
2018-03-01T04:46:48.430Z,12.47
2018-03-01T04:49:16.883Z,12.67
2018-03-01T04:51:45.281Z,13.70
2018-03-01T04:54:13.730Z,13.57
2018-03-01T04:56:42.161Z,12.80
2018-03-01T04:59:11.335Z,13.73
2018-03-01T05:01:40.535Z,12.77
2018-03-01T05:04:08.940Z,13.40
2018-03-01T05:06:38.167Z,12.43
2018-03-01T05:09:06.590Z,12.80
2018-03-01T05:11:35.032Z,13.47
2018-03-01T05:14:03.478Z,14.03
2018-03-01T05:16:32.661Z,13.93
2018-03-01T05:19:01.030Z,15.40
2018-03-01T05:21:29.439Z,14.03
2018-03-01T05:23:57.865Z,12.97
2018-03-01T05:26:26.257Z,13.37
2018-03-01T05:28:54.638Z,14.40
2018-03-01T05:31:23.049Z,13.67
2018-03-01T05:33:52.217Z,14.60
2018-03-01T05:36:20.657Z,14.73
2018-03-01T05:38:49.043Z,13.40
2018-03-01T05:41:17.447Z,13.90
2018-03-01T05:43:45.895Z,13.10
2018-03-01T05:46:14.301Z,14.30
2018-03-01T05:48:42.693Z,14.33
2018-03-01T05:51:11.095Z,13.20
2018-03-01T05:53:39.490Z,13.30
2018-03-01T05:56:07.885Z,15.00
2018-03-01T05:58:36.309Z,12.47
2018-03-01T06:01:04.685Z,12.97
2018-03-01T06:03:33.861Z,14.73
2018-03-01T06:06:02.252Z,13.97
2018-03-01T06:08:30.685Z,14.33
2018-03-01T06:10:59.069Z,13.33
2018-03-01T06:13:27.471Z,12.73
2018-03-01T06:15:55.848Z,13.80
2018-03-01T06:18:24.257Z,13.07
2018-03-01T06:20:52.637Z,13.40
2018-03-01T06:23:21.012Z,14.83
2018-03-01T06:25:49.415Z,14.13
2018-03-01T06:28:18.554Z,12.43
2018-03-01T06:30:46.932Z,15.07
2018-03-01T06:33:15.332Z,13.10
2018-03-01T06:35:43.758Z,12.43
2018-03-01T06:38:12.912Z,13.77
2018-03-01T06:40:41.294Z,13.27
2018-03-01T06:43:09.701Z,13.63
2018-03-01T06:45:38.874Z,13.47
2018-03-01T06:48:07.263Z,13.17
2018-03-01T06:50:36.426Z,12.90
2018-03-01T06:53:04.886Z,12.30
2018-03-01T06:55:33.259Z,11.80
2018-03-01T06:58:01.641Z,12.90
2018-03-01T07:00:30.058Z,12.90
2018-03-01T07:02:58.447Z,12.30
2018-03-01T07:05:26.869Z,13.90
2018-03-01T07:07:55.261Z,13.93
2018-03-01T07:10:23.670Z,13.33
2018-03-01T07:12:52.079Z,13.80
2018-03-01T07:15:20.475Z,13.60
2018-03-01T07:17:48.871Z,11.47
2018-03-01T07:20:17.238Z,12.33
2018-03-01T07:22:45.631Z,12.60
2018-03-01T07:25:14.035Z,12.70
2018-03-01T07:27:42.501Z,13.73
2018-03-01T07:30:10.905Z,12.77
2018-03-01T07:32:39.284Z,14.27
2018-03-01T07:35:07.663Z,11.23
2018-03-01T07:37:36.045Z,14.30
2018-03-01T07:40:04.442Z,14.30
2018-03-01T07:42:32.811Z,13.13
2018-03-01T07:45:01.223Z,13.43
2018-03-01T07:47:29.650Z,12.97
2018-03-01T07:49:58.023Z,13.43
2018-03-01T07:52:26.422Z,14.20
2018-03-01T07:54:54.794Z,15.07
2018-03-01T07:57:23.250Z,13.93
2018-03-01T07:59:51.651Z,13.70
2018-03-01T08:02:20.030Z,13.43
2018-03-01T08:04:48.433Z,14.17
2018-03-01T08:07:16.881Z,13.30
2018-03-01T08:09:45.256Z,12.23
2018-03-01T08:12:13.772Z,14.23
2018-03-01T08:14:42.151Z,14.07
2018-03-01T08:17:10.526Z,14.93
2018-03-01T08:19:38.887Z,14.80
2018-03-01T08:22:07.276Z,13.70
2018-03-01T08:24:35.704Z,13.80
2018-03-01T08:27:04.080Z,15.33
2018-03-01T08:29:32.489Z,13.20
2018-03-01T08:32:00.870Z,13.50
2018-03-01T08:34:29.332Z,13.90
2018-03-01T08:36:57.697Z,14.60
2018-03-01T08:39:26.065Z,12.90
2018-03-01T08:41:54.456Z,14.60
2018-03-01T08:44:22.912Z,13.17
2018-03-01T08:46:51.315Z,14.40
2018-03-01T08:49:19.711Z,15.00
2018-03-01T08:51:48.137Z,14.00
2018-03-01T08:54:16.663Z,13.70
2018-03-01T08:56:45.076Z,15.30
2018-03-01T08:59:13.466Z,13.57
2018-03-01T09:01:41.833Z,13.40
2018-03-01T09:04:10.234Z,14.47
2018-03-01T09:06:38.639Z,12.63
2018-03-01T09:09:07.037Z,13.70
2018-03-01T09:11:35.441Z,12.60
2018-03-01T09:14:03.841Z,13.37
2018-03-01T09:16:32.209Z,13.17
2018-03-01T09:19:00.628Z,13.37
2018-03-01T09:21:29.019Z,14.60
2018-03-01T09:23:57.392Z,12.37
2018-03-01T09:26:25.794Z,14.57
2018-03-01T09:28:54.190Z,13.10
2018-03-01T09:31:22.581Z,14.30
2018-03-01T09:33:51.722Z,13.93
2018-03-01T09:36:20.124Z,15.80
2018-03-01T09:38:48.489Z,16.43
2018-03-01T09:41:16.876Z,17.30
2018-03-01T09:43:45.275Z,14.87
2018-03-01T09:46:13.669Z,17.27
2018-03-01T09:48:42.018Z,16.67
2018-03-01T09:51:10.415Z,16.73
2018-03-01T09:53:38.858Z,15.63
2018-03-01T09:56:07.218Z,17.07
2018-03-01T09:58:35.611Z,16.90
2018-03-01T10:01:03.984Z,17.63
2018-03-01T10:03:32.351Z,18.07
2018-03-01T10:06:00.769Z,16.93
2018-03-01T10:08:29.130Z,16.97
2018-03-01T10:10:57.606Z,15.60
2018-03-01T10:13:26.018Z,15.83
2018-03-01T10:15:54.457Z,15.03
2018-03-01T10:18:22.809Z,15.50
2018-03-01T10:20:51.982Z,18.40
2018-03-01T10:23:20.421Z,17.30
2018-03-01T10:25:48.786Z,13.57
2018-03-01T10:28:17.154Z,14.10
2018-03-01T10:30:45.582Z,16.03
2018-03-01T10:33:14.069Z,15.73
2018-03-01T10:35:42.454Z,16.10
2018-03-01T10:38:10.855Z,14.30
2018-03-01T10:40:39.255Z,16.50
2018-03-01T10:43:07.642Z,16.00
2018-03-01T10:45:36.078Z,16.90
2018-03-01T10:48:04.470Z,15.60
2018-03-01T10:50:32.850Z,15.20
2018-03-01T10:53:02.033Z,14.83
2018-03-01T10:55:30.489Z,14.30
2018-03-01T10:57:58.861Z,13.50
2018-03-01T11:00:32.664Z,13.23
2018-03-01T11:03:01.066Z,13.40
2018-03-01T11:05:29.453Z,13.50
2018-03-01T11:07:57.867Z,13.27
2018-03-01T11:10:26.258Z,14.77
2018-03-01T11:12:54.659Z,14.97
2018-03-01T11:15:23.032Z,13.30
2018-03-01T11:17:51.411Z,12.67
2018-03-01T11:20:19.829Z,11.77
2018-03-01T11:22:48.212Z,14.30
2018-03-01T11:25:16.580Z,14.27
2018-03-01T11:27:44.969Z,16.47
2018-03-01T11:30:13.353Z,15.03
2018-03-01T11:32:41.763Z,13.43
2018-03-01T11:35:10.168Z,16.07
2018-03-01T11:37:38.547Z,19.00
2018-03-01T11:40:06.955Z,14.57
2018-03-01T11:42:35.332Z,15.13
2018-03-01T11:45:03.725Z,18.60
2018-03-01T11:47:32.196Z,20.20
2018-03-01T11:50:00.643Z,19.87
2018-03-01T11:52:29.043Z,18.70
2018-03-01T11:54:57.454Z,20.87
2018-03-01T11:57:26.606Z,17.40
2018-03-01T11:59:54.982Z,18.23
2018-03-01T12:02:23.388Z,17.33
2018-03-01T12:04:51.829Z,18.87
2018-03-01T12:07:20.207Z,17.23
2018-03-01T12:09:48.615Z,18.13
2018-03-01T12:12:17.039Z,19.47
2018-03-01T12:14:45.428Z,17.57
2018-03-01T12:17:13.841Z,17.27
2018-03-01T12:19:42.278Z,15.30
2018-03-01T12:22:11.424Z,14.47
2018-03-01T12:24:39.881Z,13.70
2018-03-01T12:27:08.266Z,12.13
2018-03-01T12:29:36.724Z,10.20
2018-03-01T12:32:05.177Z,10.03
2018-03-01T12:34:34.339Z,10.20
2018-03-01T12:37:02.731Z,10.37
2018-03-01T12:39:31.142Z,10.00
2018-03-01T12:42:00.274Z,11.53
2018-03-01T12:44:28.678Z,10.37
2018-03-01T12:46:57.135Z,11.13
2018-03-01T12:49:25.543Z,11.23
2018-03-01T12:51:53.925Z,10.90
2018-03-01T12:54:22.468Z,11.17
2018-03-01T12:56:50.984Z,11.83
2018-03-01T12:59:19.423Z,9.13
2018-03-01T13:01:47.946Z,10.87
2018-03-01T13:04:17.758Z,9.67
2018-03-01T13:06:46.156Z,10.90
2018-03-01T13:09:15.296Z,9.10
2018-03-01T13:11:43.689Z,10.10
2018-03-01T13:14:12.082Z,9.47
2018-03-01T13:16:40.449Z,10.60
2018-03-01T13:19:08.821Z,10.30
2018-03-01T13:21:37.221Z,10.10
2018-03-01T13:24:05.595Z,9.80
2018-03-01T13:26:33.975Z,10.20
2018-03-01T13:29:02.433Z,10.03
2018-03-01T13:31:34.209Z,10.70
2018-03-01T13:37:11.135Z,9.93
2018-03-01T13:39:40.300Z,9.43
2018-03-01T13:42:11.951Z,9.43
2018-03-01T13:44:40.358Z,9.23
2018-03-01T13:47:09.517Z,9.60
2018-03-01T13:49:37.891Z,9.93
2018-03-01T13:52:06.390Z,10.00
2018-03-01T13:54:34.778Z,9.50
2018-03-01T13:57:03.154Z,9.83
2018-03-01T13:59:31.551Z,11.00
2018-03-01T14:01:59.927Z,11.47
2018-03-01T14:04:28.301Z,12.57
2018-03-01T14:10:04.815Z,12.20
2018-03-01T14:12:49.868Z,10.57
2018-03-01T14:15:18.457Z,9.40
2018-03-01T14:21:17.038Z,11.40
2018-03-01T14:23:51.255Z,10.33
2018-03-01T14:26:19.635Z,9.97
2018-03-01T14:28:50.959Z,10.47
2018-03-01T14:31:19.422Z,11.90
2018-03-01T14:33:47.897Z,11.23
2018-03-01T14:36:16.354Z,10.90
2018-03-01T14:38:45.519Z,10.40
2018-03-01T14:41:13.981Z,10.63
2018-03-01T14:43:42.359Z,10.63
2018-03-01T14:46:10.752Z,10.73
2018-03-01T14:48:39.137Z,9.77
2018-03-01T14:51:07.686Z,11.03
2018-03-01T14:53:36.163Z,11.27
2018-03-01T14:56:04.528Z,10.27
2018-03-01T14:58:32.966Z,9.80
2018-03-01T15:01:01.348Z,9.47
2018-03-01T15:03:29.732Z,10.17
2018-03-01T15:05:58.158Z,10.37
2018-03-01T15:08:26.562Z,10.23
2018-03-01T15:10:55.012Z,10.50
2018-03-01T15:13:23.400Z,10.40
2018-03-01T15:15:51.802Z,10.10
2018-03-01T15:18:20.176Z,9.57
2018-03-01T15:20:48.558Z,8.57
2018-03-01T15:23:16.988Z,10.43
2018-03-01T15:25:46.202Z,9.33
2018-03-01T15:28:14.586Z,9.77
2018-03-01T15:30:43.141Z,10.00
2018-03-01T15:33:15.485Z,9.80
2018-03-01T15:35:43.866Z,11.03
2018-03-01T15:38:13.088Z,8.33
2018-03-01T15:40:42.240Z,10.07
2018-03-01T15:43:10.687Z,10.13
2018-03-01T15:45:39.114Z,9.37
2018-03-01T15:48:07.497Z,10.60
2018-03-01T15:50:35.883Z,9.77
2018-03-01T15:53:05.094Z,11.00
2018-03-01T15:55:34.271Z,10.20
2018-03-01T15:58:02.699Z,10.80
2018-03-01T16:00:31.079Z,9.30
2018-03-01T16:02:59.567Z,11.40
2018-03-01T16:05:27.971Z,10.53
2018-03-01T16:07:56.353Z,10.97
2018-03-01T16:10:24.718Z,9.80
2018-03-01T16:12:53.127Z,10.27
2018-03-01T16:15:21.526Z,10.33
2018-03-01T16:17:50.783Z,11.50
2018-03-01T16:20:19.159Z,10.43
2018-03-01T16:22:47.603Z,10.53
2018-03-01T16:25:16.044Z,9.90
2018-03-01T16:27:44.413Z,10.93
2018-03-01T16:30:12.827Z,9.60
2018-03-01T16:32:41.984Z,9.50
2018-03-01T16:35:10.358Z,9.40
2018-03-01T16:37:38.769Z,10.60
2018-03-01T16:40:08.058Z,9.00
2018-03-01T16:42:37.220Z,9.93
2018-03-01T16:45:05.657Z,9.70
2018-03-01T16:47:34.910Z,11.10
2018-03-01T16:50:03.333Z,9.80
2018-03-01T16:52:31.737Z,11.53
2018-03-01T16:55:00.241Z,10.73
2018-03-01T16:57:28.643Z,10.83
2018-03-01T16:59:57.089Z,10.07
2018-03-01T17:02:25.490Z,11.37
2018-03-01T17:04:54.021Z,10.70
2018-03-01T17:07:22.468Z,10.40
2018-03-01T17:09:50.864Z,10.60
2018-03-01T17:12:20.098Z,9.50
2018-03-01T17:14:48.502Z,10.20
2018-03-01T17:17:16.955Z,10.90
2018-03-01T17:19:45.336Z,10.77
2018-03-01T17:22:13.722Z,11.20
2018-03-01T17:24:42.139Z,11.23
2018-03-01T17:27:10.642Z,10.87
2018-03-01T17:29:39.912Z,11.63
2018-03-01T17:32:08.315Z,11.63
2018-03-01T17:34:37.482Z,11.13
2018-03-01T17:37:05.878Z,12.90
2018-03-01T17:39:34.319Z,11.20
2018-03-01T17:42:02.748Z,14.10
2018-03-01T17:44:31.996Z,10.03
2018-03-01T17:47:00.417Z,13.00
2018-03-01T17:49:29.593Z,12.03
2018-03-01T17:51:58.031Z,12.53
2018-03-01T17:54:26.434Z,11.60
2018-03-01T17:56:54.824Z,12.30
2018-03-01T17:59:23.236Z,10.30
2018-03-01T18:01:51.654Z,11.63
2018-03-01T18:04:20.047Z,13.17
2018-03-01T18:06:48.440Z,13.30
2018-03-01T18:09:16.850Z,14.00
2018-03-01T18:11:45.246Z,13.93
2018-03-01T18:14:14.400Z,13.60
2018-03-01T18:16:42.796Z,13.80
2018-03-01T18:19:11.208Z,16.53
2018-03-01T18:21:39.613Z,15.60
2018-03-01T18:24:08.042Z,14.00
2018-03-01T18:26:37.208Z,14.90
2018-03-01T18:29:05.594Z,14.33
2018-03-01T18:31:34.030Z,14.20
2018-03-01T18:34:02.429Z,14.20
2018-03-01T18:36:30.828Z,15.33
2018-03-01T18:38:59.241Z,15.67
2018-03-01T18:41:28.429Z,15.57
2018-03-01T18:43:56.856Z,16.47
2018-03-01T18:46:25.238Z,16.17
2018-03-01T18:48:53.636Z,13.60
2018-03-01T18:51:22.105Z,16.63
2018-03-01T18:53:50.506Z,16.20
2018-03-01T18:56:18.894Z,15.43
2018-03-01T18:58:47.298Z,16.50
2018-03-01T19:01:16.466Z,17.03
2018-03-01T19:03:44.845Z,17.80
2018-03-01T19:06:14.021Z,15.80
2018-03-01T19:08:42.486Z,17.23
2018-03-01T19:11:11.026Z,17.80
2018-03-01T19:13:40.943Z,16.13
2018-03-01T19:16:09.703Z,16.00
2018-03-01T19:18:38.100Z,18.40
2018-03-01T19:21:07.289Z,16.27
2018-03-01T19:23:35.667Z,16.77
2018-03-01T19:26:04.846Z,17.87
2018-03-01T19:28:33.234Z,17.63
2018-03-01T19:31:01.642Z,17.13
2018-03-01T19:33:30.788Z,17.30
2018-03-01T19:35:59.193Z,17.47
2018-03-01T19:38:27.574Z,18.00
2018-03-01T19:40:55.991Z,18.30
2018-03-01T19:43:24.383Z,16.83
2018-03-01T19:45:52.767Z,18.40
2018-03-01T19:48:21.190Z,17.77
2018-03-01T19:50:49.567Z,16.67
2018-03-01T19:53:17.946Z,16.90
2018-03-01T19:55:46.352Z,19.17
2018-03-01T19:58:15.495Z,18.50
2018-03-01T20:00:43.878Z,18.60
2018-03-01T20:03:12.326Z,18.70
2018-03-01T20:05:40.732Z,17.00
2018-03-01T20:08:09.149Z,17.67
2018-03-01T20:10:38.488Z,17.70
2018-03-01T20:13:06.865Z,19.07
2018-03-01T20:15:35.274Z,18.97
2018-03-01T20:18:03.834Z,18.30
2018-03-01T20:20:32.457Z,20.07
2018-03-01T20:23:00.879Z,17.93
2018-03-01T20:25:29.402Z,19.50
2018-03-01T20:27:57.786Z,19.77
2018-03-01T20:30:26.205Z,18.83
2018-03-01T20:32:55.356Z,17.87
2018-03-01T20:35:23.823Z,18.30
2018-03-01T20:37:52.233Z,19.13
2018-03-01T20:40:20.659Z,18.23
2018-03-01T20:42:49.056Z,20.33
2018-03-01T20:45:17.461Z,19.40
2018-03-01T20:47:45.882Z,18.77
2018-03-01T20:50:15.058Z,20.07
2018-03-01T20:52:43.451Z,19.00
2018-03-01T20:55:12.690Z,19.57
2018-03-01T20:57:41.060Z,18.80
2018-03-01T21:00:09.462Z,19.13
2018-03-01T21:02:37.854Z,18.80
2018-03-01T21:05:06.252Z,20.60
2018-03-01T21:07:34.670Z,20.03
2018-03-01T21:10:03.064Z,18.60
2018-03-01T21:12:31.469Z,19.27
2018-03-01T21:14:59.877Z,21.13
2018-03-01T21:17:29.114Z,21.47
2018-03-01T21:19:57.626Z,19.87
2018-03-01T21:22:26.062Z,18.97
2018-03-01T21:24:54.852Z,19.90
2018-03-01T21:27:23.254Z,19.43
2018-03-01T21:29:51.658Z,19.40
2018-03-01T21:32:20.205Z,19.87
2018-03-01T21:34:48.629Z,19.17
2018-03-01T21:37:17.067Z,20.70
2018-03-01T21:39:45.481Z,18.90
2018-03-01T21:42:13.926Z,19.40
2018-03-01T21:44:42.313Z,20.60
2018-03-01T21:47:10.720Z,20.90
2018-03-01T21:49:39.139Z,19.90
2018-03-01T21:52:07.563Z,19.87
2018-03-01T21:54:35.968Z,21.80
2018-03-01T21:57:05.100Z,20.97
2018-03-01T21:59:33.851Z,19.63
2018-03-01T22:02:02.290Z,20.80
2018-03-01T22:04:30.692Z,20.40
2018-03-01T22:06:59.345Z,21.80
2018-03-01T22:09:27.776Z,19.50
2018-03-01T22:11:56.166Z,20.23
2018-03-01T22:14:25.341Z,20.40
2018-03-01T22:16:54.517Z,22.33
2018-03-01T22:19:23.601Z,20.17
2018-03-01T22:21:52.053Z,21.40
2018-03-01T22:24:20.415Z,21.27
2018-03-01T22:26:49.587Z,20.93
2018-03-01T22:29:17.961Z,21.00
2018-03-01T22:31:46.386Z,20.30
2018-03-01T22:34:14.974Z,20.50
2018-03-01T22:36:43.618Z,19.97
2018-03-01T22:39:12.912Z,22.23
2018-03-01T22:41:41.328Z,21.87
2018-03-01T22:44:09.777Z,21.67
2018-03-01T22:46:38.988Z,20.77
2018-03-01T22:49:08.488Z,21.33
2018-03-01T22:51:37.319Z,21.80
2018-03-01T22:54:05.714Z,19.90
2018-03-01T22:56:34.346Z,20.23
2018-03-01T22:59:03.518Z,21.70
2018-03-01T23:01:31.918Z,21.57
2018-03-01T23:04:01.291Z,19.80
2018-03-01T23:06:31.083Z,22.70
2018-03-01T23:08:59.521Z,21.17
2018-03-01T23:11:27.977Z,20.30
2018-03-01T23:13:56.779Z,20.17
2018-03-01T23:16:25.941Z,22.80
2018-03-01T23:18:54.346Z,20.80
2018-03-01T23:21:22.725Z,20.57
2018-03-01T23:23:51.894Z,19.50
2018-03-01T23:26:20.289Z,21.37
2018-03-01T23:28:48.685Z,23.57
2018-03-01T23:31:17.930Z,21.07
2018-03-01T23:33:46.415Z,21.77
2018-03-01T23:36:14.812Z,22.73
2018-03-01T23:38:43.230Z,22.87
2018-03-01T23:41:12.425Z,20.80
2018-03-01T23:43:41.599Z,22.80
2018-03-01T23:46:10.018Z,24.20
2018-03-01T23:48:38.430Z,20.03
2018-03-01T23:51:06.865Z,21.43
2018-03-01T23:53:36.104Z,22.90
2018-03-01T23:56:04.478Z,20.40
2018-03-01T23:58:32.881Z,20.80
